sensor_id;sensor_type;location;lat;lon;timestamp;P1;durP1;ratioP1;P2;durP2;ratioP2
48685;SDS011;34485;51.536;3.816;2024-03-08T00:01:10;46.13;;;22.60;;
48685;SDS011;34485;51.536;3.816;2024-03-08T00:03:36;43.78;;;19.27;;
48685;SDS011;34485;51.536;3.816;2024-03-08T00:06:02;49.08;;;22.25;;
48685;SDS011;34485;51.536;3.816;2024-03-08T00:08:29;41.65;;;19.15;;
48685;SDS011;34485;51.536;3.816;2024-03-08T00:10:56;43.90;;;18.63;;
48685;SDS011;34485;51.536;3.816;2024-03-08T00:13:22;50.78;;;22.65;;
48685;SDS011;34485;51.536;3.816;2024-03-08T00:15:50;42.97;;;20.92;;
48685;SDS011;34485;51.536;3.816;2024-03-08T00:18:16;48.22;;;18.98;;
48685;SDS011;34485;51.536;3.816;2024-03-08T00:20:42;49.90;;;22.02;;
48685;SDS011;34485;51.536;3.816;2024-03-08T00:23:09;55.70;;;25.55;;
48685;SDS011;34485;51.536;3.816;2024-03-08T00:25:36;36.13;;;18.50;;
48685;SDS011;34485;51.536;3.816;2024-03-08T00:28:02;33.13;;;17.23;;
48685;SDS011;34485;51.536;3.816;2024-03-08T00:30:29;41.33;;;18.92;;
48685;SDS011;34485;51.536;3.816;2024-03-08T00:32:56;56.03;;;27.02;;
48685;SDS011;34485;51.536;3.816;2024-03-08T00:35:22;45.75;;;21.20;;
48685;SDS011;34485;51.536;3.816;2024-03-08T00:37:48;45.97;;;22.70;;
48685;SDS011;34485;51.536;3.816;2024-03-08T00:40:15;40.03;;;21.05;;
48685;SDS011;34485;51.536;3.816;2024-03-08T00:42:41;50.80;;;22.25;;
48685;SDS011;34485;51.536;3.816;2024-03-08T00:45:08;44.20;;;23.13;;
48685;SDS011;34485;51.536;3.816;2024-03-08T00:47:35;45.83;;;21.67;;
48685;SDS011;34485;51.536;3.816;2024-03-08T00:50:01;41.10;;;23.02;;
48685;SDS011;34485;51.536;3.816;2024-03-08T00:52:29;45.45;;;19.85;;
48685;SDS011;34485;51.536;3.816;2024-03-08T00:54:55;31.92;;;17.58;;
48685;SDS011;34485;51.536;3.816;2024-03-08T00:57:21;48.42;;;22.17;;
48685;SDS011;34485;51.536;3.816;2024-03-08T00:59:47;45.10;;;23.30;;
48685;SDS011;34485;51.536;3.816;2024-03-08T01:02:13;42.08;;;20.45;;
48685;SDS011;34485;51.536;3.816;2024-03-08T01:04:39;47.17;;;21.42;;
48685;SDS011;34485;51.536;3.816;2024-03-08T01:07:05;41.92;;;19.77;;
48685;SDS011;34485;51.536;3.816;2024-03-08T01:09:31;48.45;;;21.77;;
48685;SDS011;34485;51.536;3.816;2024-03-08T01:11:57;37.63;;;19.48;;
48685;SDS011;34485;51.536;3.816;2024-03-08T01:14:23;39.03;;;19.80;;
48685;SDS011;34485;51.536;3.816;2024-03-08T01:16:56;33.40;;;17.13;;
48685;SDS011;34485;51.536;3.816;2024-03-08T01:19:22;39.03;;;18.73;;
48685;SDS011;34485;51.536;3.816;2024-03-08T01:21:48;50.35;;;22.42;;
48685;SDS011;34485;51.536;3.816;2024-03-08T01:24:15;41.50;;;21.83;;
48685;SDS011;34485;51.536;3.816;2024-03-08T01:26:41;45.33;;;20.42;;
48685;SDS011;34485;51.536;3.816;2024-03-08T01:29:07;44.00;;;19.35;;
48685;SDS011;34485;51.536;3.816;2024-03-08T01:31:33;41.80;;;20.50;;
48685;SDS011;34485;51.536;3.816;2024-03-08T01:34:01;37.47;;;19.55;;
48685;SDS011;34485;51.536;3.816;2024-03-08T01:36:27;40.67;;;23.50;;
48685;SDS011;34485;51.536;3.816;2024-03-08T01:38:53;35.55;;;21.08;;
48685;SDS011;34485;51.536;3.816;2024-03-08T01:41:19;37.47;;;20.20;;
48685;SDS011;34485;51.536;3.816;2024-03-08T01:43:45;34.90;;;19.17;;
48685;SDS011;34485;51.536;3.816;2024-03-08T01:46:12;37.13;;;20.20;;
48685;SDS011;34485;51.536;3.816;2024-03-08T01:48:41;38.30;;;19.70;;
48685;SDS011;34485;51.536;3.816;2024-03-08T01:51:07;29.77;;;16.90;;
48685;SDS011;34485;51.536;3.816;2024-03-08T01:53:33;43.15;;;22.50;;
48685;SDS011;34485;51.536;3.816;2024-03-08T01:56:00;32.03;;;19.60;;
48685;SDS011;34485;51.536;3.816;2024-03-08T01:58:27;41.45;;;23.35;;
48685;SDS011;34485;51.536;3.816;2024-03-08T02:00:54;30.55;;;17.75;;
48685;SDS011;34485;51.536;3.816;2024-03-08T02:03:21;35.78;;;20.15;;
48685;SDS011;34485;51.536;3.816;2024-03-08T02:05:47;30.83;;;18.60;;
48685;SDS011;34485;51.536;3.816;2024-03-08T02:08:14;35.83;;;18.83;;
48685;SDS011;34485;51.536;3.816;2024-03-08T02:10:41;43.33;;;22.10;;
48685;SDS011;34485;51.536;3.816;2024-03-08T02:13:07;40.33;;;20.40;;
48685;SDS011;34485;51.536;3.816;2024-03-08T02:18:30;42.13;;;21.90;;
48685;SDS011;34485;51.536;3.816;2024-03-08T02:20:58;34.08;;;20.73;;
48685;SDS011;34485;51.536;3.816;2024-03-08T02:23:24;41.13;;;19.70;;
48685;SDS011;34485;51.536;3.816;2024-03-08T02:25:51;48.25;;;24.33;;
48685;SDS011;34485;51.536;3.816;2024-03-08T02:28:18;41.35;;;20.42;;
48685;SDS011;34485;51.536;3.816;2024-03-08T02:30:45;40.28;;;20.83;;
48685;SDS011;34485;51.536;3.816;2024-03-08T02:33:14;45.85;;;24.42;;
48685;SDS011;34485;51.536;3.816;2024-03-08T02:35:44;38.28;;;20.65;;
48685;SDS011;34485;51.536;3.816;2024-03-08T02:38:11;39.33;;;22.40;;
48685;SDS011;34485;51.536;3.816;2024-03-08T02:40:37;34.55;;;18.27;;
48685;SDS011;34485;51.536;3.816;2024-03-08T02:43:03;40.08;;;21.67;;
48685;SDS011;34485;51.536;3.816;2024-03-08T02:45:30;37.70;;;19.13;;
48685;SDS011;34485;51.536;3.816;2024-03-08T02:47:56;33.65;;;20.67;;
48685;SDS011;34485;51.536;3.816;2024-03-08T02:50:22;43.25;;;20.55;;
48685;SDS011;34485;51.536;3.816;2024-03-08T02:52:48;39.45;;;21.45;;
48685;SDS011;34485;51.536;3.816;2024-03-08T02:55:14;35.58;;;21.38;;
48685;SDS011;34485;51.536;3.816;2024-03-08T02:57:41;37.47;;;18.80;;
48685;SDS011;34485;51.536;3.816;2024-03-08T03:00:08;34.78;;;19.50;;
48685;SDS011;34485;51.536;3.816;2024-03-08T03:02:35;32.05;;;17.98;;
48685;SDS011;34485;51.536;3.816;2024-03-08T03:05:01;34.60;;;20.67;;
48685;SDS011;34485;51.536;3.816;2024-03-08T03:07:34;40.28;;;21.98;;
48685;SDS011;34485;51.536;3.816;2024-03-08T03:10:00;42.80;;;19.90;;
48685;SDS011;34485;51.536;3.816;2024-03-08T03:12:29;23.67;;;14.45;;
48685;SDS011;34485;51.536;3.816;2024-03-08T03:14:56;37.40;;;21.23;;
48685;SDS011;34485;51.536;3.816;2024-03-08T03:17:22;29.50;;;18.17;;
48685;SDS011;34485;51.536;3.816;2024-03-08T03:19:49;38.22;;;20.30;;
48685;SDS011;34485;51.536;3.816;2024-03-08T03:22:16;45.97;;;24.73;;
48685;SDS011;34485;51.536;3.816;2024-03-08T03:24:43;41.22;;;22.90;;
48685;SDS011;34485;51.536;3.816;2024-03-08T03:27:09;33.08;;;16.95;;
48685;SDS011;34485;51.536;3.816;2024-03-08T03:29:38;34.25;;;17.80;;
48685;SDS011;34485;51.536;3.816;2024-03-08T03:32:07;31.42;;;18.95;;
48685;SDS011;34485;51.536;3.816;2024-03-08T03:34:33;35.75;;;20.30;;
48685;SDS011;34485;51.536;3.816;2024-03-08T03:37:03;37.75;;;20.40;;
48685;SDS011;34485;51.536;3.816;2024-03-08T03:39:29;28.80;;;18.67;;
48685;SDS011;34485;51.536;3.816;2024-03-08T03:41:59;32.67;;;19.33;;
48685;SDS011;34485;51.536;3.816;2024-03-08T03:44:30;35.47;;;21.25;;
48685;SDS011;34485;51.536;3.816;2024-03-08T03:46:57;36.28;;;19.98;;
48685;SDS011;34485;51.536;3.816;2024-03-08T03:49:23;52.97;;;18.92;;
48685;SDS011;34485;51.536;3.816;2024-03-08T03:51:49;38.50;;;20.15;;
48685;SDS011;34485;51.536;3.816;2024-03-08T03:54:15;30.57;;;18.13;;
48685;SDS011;34485;51.536;3.816;2024-03-08T03:56:41;30.02;;;18.65;;
48685;SDS011;34485;51.536;3.816;2024-03-08T03:59:07;30.20;;;19.20;;
48685;SDS011;34485;51.536;3.816;2024-03-08T04:01:33;33.70;;;21.13;;
48685;SDS011;34485;51.536;3.816;2024-03-08T04:03:59;33.03;;;20.10;;
48685;SDS011;34485;51.536;3.816;2024-03-08T04:06:25;37.43;;;20.27;;
48685;SDS011;34485;51.536;3.816;2024-03-08T04:08:51;39.42;;;23.48;;
48685;SDS011;34485;51.536;3.816;2024-03-08T04:11:17;31.13;;;17.05;;
48685;SDS011;34485;51.536;3.816;2024-03-08T04:13:43;33.78;;;17.55;;
48685;SDS011;34485;51.536;3.816;2024-03-08T04:16:09;32.42;;;19.13;;
48685;SDS011;34485;51.536;3.816;2024-03-08T04:18:36;32.20;;;19.83;;
48685;SDS011;34485;51.536;3.816;2024-03-08T04:21:03;32.50;;;17.52;;
48685;SDS011;34485;51.536;3.816;2024-03-08T04:23:33;28.00;;;17.08;;
48685;SDS011;34485;51.536;3.816;2024-03-08T04:26:02;29.67;;;17.88;;
48685;SDS011;34485;51.536;3.816;2024-03-08T04:28:29;33.17;;;18.33;;
48685;SDS011;34485;51.536;3.816;2024-03-08T04:30:56;32.97;;;17.90;;
48685;SDS011;34485;51.536;3.816;2024-03-08T04:33:22;31.73;;;18.90;;
48685;SDS011;34485;51.536;3.816;2024-03-08T04:35:48;27.42;;;16.23;;
48685;SDS011;34485;51.536;3.816;2024-03-08T04:38:15;33.38;;;19.77;;
48685;SDS011;34485;51.536;3.816;2024-03-08T04:40:41;27.23;;;16.52;;
48685;SDS011;34485;51.536;3.816;2024-03-08T04:43:07;36.42;;;21.30;;
48685;SDS011;34485;51.536;3.816;2024-03-08T04:45:33;34.97;;;21.85;;
48685;SDS011;34485;51.536;3.816;2024-03-08T04:48:00;31.13;;;17.10;;
48685;SDS011;34485;51.536;3.816;2024-03-08T04:50:26;28.90;;;18.88;;
48685;SDS011;34485;51.536;3.816;2024-03-08T04:52:54;38.00;;;21.25;;
48685;SDS011;34485;51.536;3.816;2024-03-08T04:55:20;30.58;;;19.85;;
48685;SDS011;34485;51.536;3.816;2024-03-08T04:57:46;33.90;;;18.67;;
48685;SDS011;34485;51.536;3.816;2024-03-08T05:00:13;31.95;;;18.20;;
48685;SDS011;34485;51.536;3.816;2024-03-08T05:02:40;32.10;;;19.27;;
48685;SDS011;34485;51.536;3.816;2024-03-08T05:05:06;32.97;;;16.67;;
48685;SDS011;34485;51.536;3.816;2024-03-08T05:07:34;36.42;;;22.50;;
48685;SDS011;34485;51.536;3.816;2024-03-08T05:10:00;31.42;;;20.58;;
48685;SDS011;34485;51.536;3.816;2024-03-08T05:12:27;30.13;;;18.23;;
48685;SDS011;34485;51.536;3.816;2024-03-08T05:14:53;29.50;;;16.83;;
48685;SDS011;34485;51.536;3.816;2024-03-08T05:17:20;28.20;;;17.65;;
48685;SDS011;34485;51.536;3.816;2024-03-08T05:19:49;36.70;;;21.50;;
48685;SDS011;34485;51.536;3.816;2024-03-08T05:22:15;26.50;;;17.13;;
48685;SDS011;34485;51.536;3.816;2024-03-08T05:24:41;27.33;;;17.83;;
48685;SDS011;34485;51.536;3.816;2024-03-08T05:27:07;34.72;;;18.45;;
48685;SDS011;34485;51.536;3.816;2024-03-08T05:29:33;29.00;;;18.65;;
48685;SDS011;34485;51.536;3.816;2024-03-08T05:31:59;32.25;;;18.95;;
48685;SDS011;34485;51.536;3.816;2024-03-08T05:34:27;33.28;;;18.88;;
48685;SDS011;34485;51.536;3.816;2024-03-08T05:36:56;33.50;;;19.58;;
48685;SDS011;34485;51.536;3.816;2024-03-08T05:39:23;33.00;;;19.42;;
48685;SDS011;34485;51.536;3.816;2024-03-08T05:41:49;30.40;;;17.60;;
48685;SDS011;34485;51.536;3.816;2024-03-08T05:44:16;34.50;;;20.02;;
48685;SDS011;34485;51.536;3.816;2024-03-08T05:46:42;38.00;;;24.40;;
48685;SDS011;34485;51.536;3.816;2024-03-08T05:49:08;23.88;;;17.08;;
48685;SDS011;34485;51.536;3.816;2024-03-08T05:51:36;33.03;;;22.48;;
48685;SDS011;34485;51.536;3.816;2024-03-08T05:54:02;42.38;;;24.67;;
48685;SDS011;34485;51.536;3.816;2024-03-08T05:56:30;33.80;;;20.42;;
48685;SDS011;34485;51.536;3.816;2024-03-08T05:58:56;28.58;;;18.33;;
48685;SDS011;34485;51.536;3.816;2024-03-08T06:01:26;31.10;;;20.00;;
48685;SDS011;34485;51.536;3.816;2024-03-08T06:03:55;32.13;;;20.40;;
48685;SDS011;34485;51.536;3.816;2024-03-08T06:06:24;25.50;;;17.15;;
48685;SDS011;34485;51.536;3.816;2024-03-08T06:08:50;32.95;;;22.30;;
48685;SDS011;34485;51.536;3.816;2024-03-08T06:11:17;23.95;;;16.48;;
48685;SDS011;34485;51.536;3.816;2024-03-08T06:13:44;31.95;;;18.35;;
48685;SDS011;34485;51.536;3.816;2024-03-08T06:16:10;36.83;;;21.55;;
48685;SDS011;34485;51.536;3.816;2024-03-08T06:18:36;38.25;;;20.90;;
48685;SDS011;34485;51.536;3.816;2024-03-08T06:21:03;33.13;;;19.33;;
48685;SDS011;34485;51.536;3.816;2024-03-08T06:23:32;33.35;;;22.33;;
48685;SDS011;34485;51.536;3.816;2024-03-08T06:25:58;35.70;;;21.05;;
48685;SDS011;34485;51.536;3.816;2024-03-08T06:28:24;31.25;;;18.33;;
48685;SDS011;34485;51.536;3.816;2024-03-08T06:30:51;36.83;;;22.10;;
48685;SDS011;34485;51.536;3.816;2024-03-08T06:33:17;34.42;;;20.10;;
48685;SDS011;34485;51.536;3.816;2024-03-08T06:35:43;44.83;;;23.27;;
48685;SDS011;34485;51.536;3.816;2024-03-08T06:38:09;30.27;;;18.70;;
48685;SDS011;34485;51.536;3.816;2024-03-08T06:40:36;35.75;;;18.83;;
48685;SDS011;34485;51.536;3.816;2024-03-08T06:43:02;32.10;;;19.25;;
48685;SDS011;34485;51.536;3.816;2024-03-08T06:45:32;32.05;;;18.67;;
48685;SDS011;34485;51.536;3.816;2024-03-08T06:47:58;32.03;;;21.33;;
48685;SDS011;34485;51.536;3.816;2024-03-08T06:50:24;28.30;;;19.65;;
48685;SDS011;34485;51.536;3.816;2024-03-08T06:52:50;33.35;;;18.50;;
48685;SDS011;34485;51.536;3.816;2024-03-08T06:55:19;42.95;;;23.23;;
48685;SDS011;34485;51.536;3.816;2024-03-08T06:57:45;31.23;;;18.88;;
48685;SDS011;34485;51.536;3.816;2024-03-08T07:00:11;36.40;;;22.73;;
48685;SDS011;34485;51.536;3.816;2024-03-08T07:02:43;33.67;;;20.20;;
48685;SDS011;34485;51.536;3.816;2024-03-08T07:05:11;26.73;;;19.08;;
48685;SDS011;34485;51.536;3.816;2024-03-08T07:07:37;26.30;;;17.33;;
48685;SDS011;34485;51.536;3.816;2024-03-08T07:10:03;33.58;;;19.30;;
48685;SDS011;34485;51.536;3.816;2024-03-08T07:12:29;31.75;;;18.52;;
48685;SDS011;34485;51.536;3.816;2024-03-08T07:14:55;30.45;;;16.52;;
48685;SDS011;34485;51.536;3.816;2024-03-08T07:17:21;29.08;;;17.45;;
48685;SDS011;34485;51.536;3.816;2024-03-08T07:19:49;31.75;;;19.33;;
48685;SDS011;34485;51.536;3.816;2024-03-08T07:22:15;28.48;;;19.10;;
48685;SDS011;34485;51.536;3.816;2024-03-08T07:24:42;30.38;;;18.75;;
48685;SDS011;34485;51.536;3.816;2024-03-08T07:27:27;23.25;;;16.23;;
48685;SDS011;34485;51.536;3.816;2024-03-08T07:29:54;31.58;;;19.98;;
48685;SDS011;34485;51.536;3.816;2024-03-08T07:32:20;20.83;;;14.15;;
48685;SDS011;34485;51.536;3.816;2024-03-08T07:34:49;35.73;;;21.67;;
48685;SDS011;34485;51.536;3.816;2024-03-08T07:37:16;27.05;;;18.13;;
48685;SDS011;34485;51.536;3.816;2024-03-08T07:39:42;23.95;;;15.02;;
48685;SDS011;34485;51.536;3.816;2024-03-08T07:42:08;28.83;;;17.38;;
48685;SDS011;34485;51.536;3.816;2024-03-08T07:44:35;28.23;;;18.92;;
48685;SDS011;34485;51.536;3.816;2024-03-08T07:47:01;32.00;;;21.75;;
48685;SDS011;34485;51.536;3.816;2024-03-08T07:49:26;24.42;;;14.65;;
48685;SDS011;34485;51.536;3.816;2024-03-08T07:51:52;22.20;;;13.85;;
48685;SDS011;34485;51.536;3.816;2024-03-08T07:54:18;25.95;;;17.48;;
48685;SDS011;34485;51.536;3.816;2024-03-08T07:56:45;27.77;;;15.88;;
48685;SDS011;34485;51.536;3.816;2024-03-08T07:59:11;26.17;;;16.85;;
48685;SDS011;34485;51.536;3.816;2024-03-08T08:01:37;24.38;;;15.80;;
48685;SDS011;34485;51.536;3.816;2024-03-08T08:04:03;24.05;;;16.02;;
48685;SDS011;34485;51.536;3.816;2024-03-08T08:06:30;20.58;;;13.57;;
48685;SDS011;34485;51.536;3.816;2024-03-08T08:08:59;24.10;;;16.27;;
48685;SDS011;34485;51.536;3.816;2024-03-08T08:11:26;23.48;;;15.77;;
48685;SDS011;34485;51.536;3.816;2024-03-08T08:13:56;27.02;;;18.17;;
48685;SDS011;34485;51.536;3.816;2024-03-08T08:16:25;25.98;;;16.27;;
48685;SDS011;34485;51.536;3.816;2024-03-08T08:18:50;24.52;;;17.20;;
48685;SDS011;34485;51.536;3.816;2024-03-08T08:21:17;25.13;;;16.40;;
48685;SDS011;34485;51.536;3.816;2024-03-08T08:23:43;21.25;;;15.27;;
48685;SDS011;34485;51.536;3.816;2024-03-08T08:26:10;24.85;;;17.00;;
48685;SDS011;34485;51.536;3.816;2024-03-08T08:28:36;25.07;;;16.83;;
48685;SDS011;34485;51.536;3.816;2024-03-08T08:31:03;24.80;;;17.40;;
48685;SDS011;34485;51.536;3.816;2024-03-08T08:33:29;23.95;;;17.00;;
48685;SDS011;34485;51.536;3.816;2024-03-08T08:35:55;24.88;;;16.02;;
48685;SDS011;34485;51.536;3.816;2024-03-08T08:38:21;29.08;;;19.67;;
48685;SDS011;34485;51.536;3.816;2024-03-08T08:40:48;24.83;;;16.23;;
48685;SDS011;34485;51.536;3.816;2024-03-08T08:43:15;25.85;;;16.17;;
48685;SDS011;34485;51.536;3.816;2024-03-08T08:45:40;28.00;;;17.10;;
48685;SDS011;34485;51.536;3.816;2024-03-08T08:48:07;30.17;;;19.10;;
48685;SDS011;34485;51.536;3.816;2024-03-08T08:50:35;27.95;;;18.70;;
48685;SDS011;34485;51.536;3.816;2024-03-08T08:53:01;22.50;;;15.43;;
48685;SDS011;34485;51.536;3.816;2024-03-08T08:55:28;25.55;;;16.70;;
48685;SDS011;34485;51.536;3.816;2024-03-08T08:57:55;25.48;;;16.98;;
48685;SDS011;34485;51.536;3.816;2024-03-08T09:00:22;26.23;;;18.13;;
48685;SDS011;34485;51.536;3.816;2024-03-08T09:02:52;27.02;;;19.02;;
48685;SDS011;34485;51.536;3.816;2024-03-08T09:05:20;25.23;;;15.77;;
48685;SDS011;34485;51.536;3.816;2024-03-08T09:07:46;25.30;;;17.70;;
48685;SDS011;34485;51.536;3.816;2024-03-08T09:10:12;22.48;;;14.45;;
48685;SDS011;34485;51.536;3.816;2024-03-08T09:12:39;26.52;;;17.70;;
48685;SDS011;34485;51.536;3.816;2024-03-08T09:15:05;24.40;;;16.30;;
48685;SDS011;34485;51.536;3.816;2024-03-08T09:17:35;38.38;;;18.13;;
48685;SDS011;34485;51.536;3.816;2024-03-08T09:20:04;23.77;;;14.68;;
48685;SDS011;34485;51.536;3.816;2024-03-08T09:22:31;20.63;;;14.80;;
48685;SDS011;34485;51.536;3.816;2024-03-08T09:24:57;25.70;;;14.47;;
48685;SDS011;34485;51.536;3.816;2024-03-08T09:27:23;27.40;;;18.20;;
48685;SDS011;34485;51.536;3.816;2024-03-08T09:29:49;22.90;;;13.45;;
48685;SDS011;34485;51.536;3.816;2024-03-08T09:32:16;21.90;;;14.82;;
48685;SDS011;34485;51.536;3.816;2024-03-08T09:34:41;23.52;;;13.40;;
48685;SDS011;34485;51.536;3.816;2024-03-08T09:37:07;28.27;;;16.95;;
48685;SDS011;34485;51.536;3.816;2024-03-08T09:39:34;22.13;;;16.13;;
48685;SDS011;34485;51.536;3.816;2024-03-08T09:42:00;23.00;;;15.70;;
48685;SDS011;34485;51.536;3.816;2024-03-08T09:44:26;26.27;;;16.70;;
48685;SDS011;34485;51.536;3.816;2024-03-08T09:46:54;23.88;;;18.00;;
48685;SDS011;34485;51.536;3.816;2024-03-08T09:49:20;21.52;;;15.57;;
48685;SDS011;34485;51.536;3.816;2024-03-08T09:51:46;19.40;;;13.83;;
48685;SDS011;34485;51.536;3.816;2024-03-08T09:54:12;19.58;;;13.43;;
48685;SDS011;34485;51.536;3.816;2024-03-08T09:56:41;22.17;;;15.43;;
48685;SDS011;34485;51.536;3.816;2024-03-08T09:59:09;20.80;;;13.32;;
48685;SDS011;34485;51.536;3.816;2024-03-08T10:01:38;23.70;;;15.30;;
48685;SDS011;34485;51.536;3.816;2024-03-08T10:04:04;22.40;;;15.00;;
48685;SDS011;34485;51.536;3.816;2024-03-08T10:06:30;26.83;;;14.52;;
48685;SDS011;34485;51.536;3.816;2024-03-08T10:08:56;25.23;;;14.68;;
48685;SDS011;34485;51.536;3.816;2024-03-08T10:11:22;23.50;;;14.07;;
48685;SDS011;34485;51.536;3.816;2024-03-08T10:13:49;21.97;;;13.40;;
48685;SDS011;34485;51.536;3.816;2024-03-08T10:16:15;18.40;;;13.10;;
48685;SDS011;34485;51.536;3.816;2024-03-08T10:18:47;23.70;;;16.02;;
48685;SDS011;34485;51.536;3.816;2024-03-08T10:21:12;17.73;;;13.00;;
48685;SDS011;34485;51.536;3.816;2024-03-08T10:23:40;20.80;;;12.80;;
48685;SDS011;34485;51.536;3.816;2024-03-08T10:26:11;20.88;;;13.23;;
48685;SDS011;34485;51.536;3.816;2024-03-08T10:28:44;21.70;;;15.65;;
48685;SDS011;34485;51.536;3.816;2024-03-08T10:31:13;23.38;;;14.88;;
48685;SDS011;34485;51.536;3.816;2024-03-08T10:33:40;20.35;;;14.07;;
48685;SDS011;34485;51.536;3.816;2024-03-08T10:36:09;25.93;;;15.73;;
48685;SDS011;34485;51.536;3.816;2024-03-08T10:38:39;19.60;;;13.80;;
48685;SDS011;34485;51.536;3.816;2024-03-08T10:41:05;24.55;;;16.20;;
48685;SDS011;34485;51.536;3.816;2024-03-08T10:49:20;19.17;;;12.57;;
48685;SDS011;34485;51.536;3.816;2024-03-08T10:52:04;20.88;;;11.20;;
48685;SDS011;34485;51.536;3.816;2024-03-08T10:54:33;20.10;;;13.88;;
48685;SDS011;34485;51.536;3.816;2024-03-08T10:57:01;20.40;;;15.20;;
48685;SDS011;34485;51.536;3.816;2024-03-08T10:59:30;19.70;;;13.07;;
48685;SDS011;34485;51.536;3.816;2024-03-08T11:01:56;20.57;;;15.93;;
48685;SDS011;34485;51.536;3.816;2024-03-08T11:04:22;17.67;;;13.15;;
48685;SDS011;34485;51.536;3.816;2024-03-08T11:06:48;18.98;;;12.30;;
48685;SDS011;34485;51.536;3.816;2024-03-08T11:09:31;20.23;;;14.83;;
48685;SDS011;34485;51.536;3.816;2024-03-08T11:14:46;18.58;;;13.93;;
48685;SDS011;34485;51.536;3.816;2024-03-08T11:17:14;16.60;;;12.00;;
48685;SDS011;34485;51.536;3.816;2024-03-08T11:19:45;17.73;;;12.93;;
48685;SDS011;34485;51.536;3.816;2024-03-08T11:22:28;20.37;;;14.70;;
48685;SDS011;34485;51.536;3.816;2024-03-08T11:25:08;17.45;;;12.63;;
48685;SDS011;34485;51.536;3.816;2024-03-08T11:27:37;23.73;;;12.60;;
48685;SDS011;34485;51.536;3.816;2024-03-08T11:30:07;16.83;;;11.95;;
48685;SDS011;34485;51.536;3.816;2024-03-08T11:32:37;19.35;;;14.75;;
48685;SDS011;34485;51.536;3.816;2024-03-08T11:35:07;16.83;;;13.10;;
48685;SDS011;34485;51.536;3.816;2024-03-08T11:37:42;15.10;;;11.95;;
48685;SDS011;34485;51.536;3.816;2024-03-08T11:40:13;19.55;;;13.38;;
48685;SDS011;34485;51.536;3.816;2024-03-08T11:42:48;20.95;;;15.30;;
48685;SDS011;34485;51.536;3.816;2024-03-08T11:45:16;17.33;;;12.48;;
48685;SDS011;34485;51.536;3.816;2024-03-08T11:47:43;27.07;;;15.87;;
48685;SDS011;34485;51.536;3.816;2024-03-08T11:50:11;22.92;;;13.02;;
48685;SDS011;34485;51.536;3.816;2024-03-08T11:52:38;19.65;;;13.48;;
48685;SDS011;34485;51.536;3.816;2024-03-08T11:55:04;20.88;;;14.77;;
48685;SDS011;34485;51.536;3.816;2024-03-08T11:57:31;18.88;;;12.85;;
48685;SDS011;34485;51.536;3.816;2024-03-08T11:59:57;18.50;;;12.47;;
48685;SDS011;34485;51.536;3.816;2024-03-08T12:02:30;17.10;;;11.05;;
48685;SDS011;34485;51.536;3.816;2024-03-08T12:04:57;18.33;;;12.52;;
48685;SDS011;34485;51.536;3.816;2024-03-08T12:07:25;19.70;;;14.88;;
48685;SDS011;34485;51.536;3.816;2024-03-08T12:12:42;18.37;;;13.80;;
48685;SDS011;34485;51.536;3.816;2024-03-08T12:15:08;18.92;;;12.07;;
48685;SDS011;34485;51.536;3.816;2024-03-08T12:17:36;20.30;;;14.63;;
48685;SDS011;34485;51.536;3.816;2024-03-08T12:20:16;19.45;;;13.82;;
48685;SDS011;34485;51.536;3.816;2024-03-08T12:22:43;21.30;;;13.82;;
48685;SDS011;34485;51.536;3.816;2024-03-08T12:25:12;22.63;;;16.83;;
48685;SDS011;34485;51.536;3.816;2024-03-08T12:27:39;20.77;;;13.20;;
48685;SDS011;34485;51.536;3.816;2024-03-08T12:30:22;21.92;;;13.50;;
48685;SDS011;34485;51.536;3.816;2024-03-08T12:32:55;21.77;;;14.90;;
48685;SDS011;34485;51.536;3.816;2024-03-08T12:35:25;17.67;;;13.52;;
48685;SDS011;34485;51.536;3.816;2024-03-08T12:37:58;23.27;;;14.33;;
48685;SDS011;34485;51.536;3.816;2024-03-08T12:40:34;18.38;;;12.32;;
48685;SDS011;34485;51.536;3.816;2024-03-08T12:43:05;17.48;;;13.30;;
48685;SDS011;34485;51.536;3.816;2024-03-08T12:45:31;22.33;;;14.57;;
48685;SDS011;34485;51.536;3.816;2024-03-08T12:47:57;20.75;;;14.68;;
48685;SDS011;34485;51.536;3.816;2024-03-08T12:50:24;19.13;;;12.33;;
48685;SDS011;34485;51.536;3.816;2024-03-08T12:52:51;19.73;;;12.70;;
48685;SDS011;34485;51.536;3.816;2024-03-08T12:55:19;17.38;;;12.48;;
48685;SDS011;34485;51.536;3.816;2024-03-08T12:57:45;20.58;;;12.90;;
48685;SDS011;34485;51.536;3.816;2024-03-08T13:00:12;25.02;;;15.68;;
48685;SDS011;34485;51.536;3.816;2024-03-08T13:02:44;23.85;;;13.80;;
48685;SDS011;34485;51.536;3.816;2024-03-08T13:05:13;20.95;;;15.60;;
48685;SDS011;34485;51.536;3.816;2024-03-08T13:07:39;17.42;;;11.60;;
48685;SDS011;34485;51.536;3.816;2024-03-08T13:10:10;17.73;;;11.93;;
48685;SDS011;34485;51.536;3.816;2024-03-08T13:12:39;19.67;;;12.73;;
48685;SDS011;34485;51.536;3.816;2024-03-08T13:15:07;15.98;;;11.20;;
48685;SDS011;34485;51.536;3.816;2024-03-08T13:17:34;16.77;;;10.32;;
48685;SDS011;34485;51.536;3.816;2024-03-08T13:20:00;18.67;;;13.37;;
48685;SDS011;34485;51.536;3.816;2024-03-08T13:22:25;15.45;;;12.60;;
48685;SDS011;34485;51.536;3.816;2024-03-08T13:24:52;18.73;;;13.30;;
48685;SDS011;34485;51.536;3.816;2024-03-08T13:27:19;16.98;;;12.07;;
48685;SDS011;34485;51.536;3.816;2024-03-08T13:29:48;17.30;;;12.40;;
48685;SDS011;34485;51.536;3.816;2024-03-08T13:32:15;21.90;;;13.77;;
48685;SDS011;34485;51.536;3.816;2024-03-08T13:34:41;18.92;;;14.15;;
48685;SDS011;34485;51.536;3.816;2024-03-08T13:37:08;18.08;;;12.07;;
48685;SDS011;34485;51.536;3.816;2024-03-08T13:39:35;20.55;;;12.70;;
48685;SDS011;34485;51.536;3.816;2024-03-08T13:42:08;19.33;;;12.95;;
48685;SDS011;34485;51.536;3.816;2024-03-08T13:44:37;22.17;;;14.30;;
48685;SDS011;34485;51.536;3.816;2024-03-08T13:47:11;24.65;;;15.60;;
48685;SDS011;34485;51.536;3.816;2024-03-08T13:49:37;20.55;;;14.20;;
48685;SDS011;34485;51.536;3.816;2024-03-08T13:52:03;19.52;;;12.88;;
48685;SDS011;34485;51.536;3.816;2024-03-08T13:54:29;18.17;;;12.65;;
48685;SDS011;34485;51.536;3.816;2024-03-08T13:56:56;20.60;;;13.47;;
48685;SDS011;34485;51.536;3.816;2024-03-08T13:59:22;21.17;;;12.75;;
48685;SDS011;34485;51.536;3.816;2024-03-08T14:01:49;17.13;;;12.35;;
48685;SDS011;34485;51.536;3.816;2024-03-08T14:04:15;22.35;;;14.45;;
48685;SDS011;34485;51.536;3.816;2024-03-08T14:06:42;22.42;;;13.63;;
48685;SDS011;34485;51.536;3.816;2024-03-08T14:09:10;19.92;;;14.73;;
48685;SDS011;34485;51.536;3.816;2024-03-08T14:11:42;20.88;;;15.88;;
48685;SDS011;34485;51.536;3.816;2024-03-08T14:14:09;20.08;;;15.30;;
48685;SDS011;34485;51.536;3.816;2024-03-08T14:16:36;19.08;;;14.23;;
48685;SDS011;34485;51.536;3.816;2024-03-08T14:19:02;18.45;;;14.13;;
48685;SDS011;34485;51.536;3.816;2024-03-08T14:21:30;17.37;;;12.70;;
48685;SDS011;34485;51.536;3.816;2024-03-08T14:23:57;21.02;;;14.60;;
48685;SDS011;34485;51.536;3.816;2024-03-08T14:26:23;24.20;;;14.57;;
48685;SDS011;34485;51.536;3.816;2024-03-08T14:28:49;18.55;;;12.80;;
48685;SDS011;34485;51.536;3.816;2024-03-08T14:31:19;17.23;;;12.48;;
48685;SDS011;34485;51.536;3.816;2024-03-08T14:33:48;19.13;;;12.73;;
48685;SDS011;34485;51.536;3.816;2024-03-08T14:36:14;15.60;;;11.48;;